createdAt,value
2019-05-22T00:02:51.444Z,27.10
2019-05-22T00:07:54.716Z,25.35
2019-05-22T00:12:58.326Z,26.60
2019-05-22T00:18:02.422Z,27.50
2019-05-22T00:23:08.091Z,23.80
2019-05-22T00:28:10.680Z,26.00
2019-05-22T00:33:13.744Z,25.88
2019-05-22T00:38:17.833Z,27.50
2019-05-22T00:43:29.714Z,25.68
2019-05-22T00:48:31.600Z,25.62
2019-05-22T00:53:55.751Z,27.35
2019-05-22T00:59:01.985Z,26.70
2019-05-22T01:04:04.937Z,25.35
2019-05-22T01:09:08.143Z,27.50
2019-05-22T01:14:12.204Z,24.70
2019-05-22T01:19:15.415Z,28.80
2019-05-22T01:24:17.159Z,23.90
2019-05-22T01:29:19.548Z,26.40
2019-05-22T01:34:25.043Z,29.50
2019-05-22T01:39:44.439Z,25.95
2019-05-22T01:44:59.808Z,26.82
2019-05-22T01:49:51.619Z,29.30
2019-05-22T01:54:54.701Z,32.03
2019-05-22T01:59:56.408Z,29.07
2019-05-22T02:04:59.935Z,27.02
2019-05-22T02:10:02.106Z,27.98
2019-05-22T02:15:04.355Z,30.15
2019-05-22T02:20:09.112Z,28.05
2019-05-22T02:25:13.341Z,29.55
2019-05-22T02:30:17.528Z,25.57
2019-05-22T02:35:21.127Z,24.80
2019-05-22T02:40:25.565Z,23.57
2019-05-22T02:45:29.316Z,27.37
2019-05-22T02:50:33.391Z,21.05
2019-05-22T02:55:35.206Z,20.70
2019-05-22T03:00:42.809Z,20.27
2019-05-22T03:05:44.563Z,20.95
2019-05-22T03:10:46.269Z,22.37
2019-05-22T03:15:48.967Z,19.95
2019-05-22T03:20:51.054Z,20.57
2019-05-22T03:25:53.111Z,22.98
2019-05-22T03:30:54.783Z,20.23
2019-05-22T03:36:02.560Z,26.40
2019-05-22T03:41:04.196Z,28.02
2019-05-22T03:46:17.692Z,25.82
2019-05-22T03:51:19.689Z,26.27
2019-05-22T03:56:22.203Z,25.95
2019-05-22T04:01:24.375Z,26.45
2019-05-22T04:06:26.068Z,28.45
2019-05-22T04:11:31.742Z,27.07
2019-05-22T04:16:34.340Z,27.93
2019-05-22T04:21:36.432Z,28.60
2019-05-22T04:26:39.308Z,27.22
2019-05-22T04:31:59.699Z,28.30
2019-05-22T04:37:01.407Z,30.32
2019-05-22T04:42:03.676Z,27.77
2019-05-22T04:47:05.926Z,27.75
2019-05-22T04:52:07.976Z,29.48
2019-05-22T04:57:10.547Z,26.15
2019-05-22T05:02:12.347Z,24.85
2019-05-22T05:07:14.048Z,24.77
2019-05-22T05:12:16.051Z,24.05
2019-05-22T05:17:18.188Z,26.02
2019-05-22T05:22:23.686Z,24.43
2019-05-22T05:27:26.540Z,23.00
2019-05-22T05:32:28.419Z,21.93
2019-05-22T05:37:31.042Z,23.12
2019-05-22T05:42:32.924Z,24.43
2019-05-22T05:47:34.703Z,21.57
2019-05-22T05:52:37.633Z,22.67
2019-05-22T05:58:01.435Z,22.05
2019-05-22T06:03:10.938Z,22.93
2019-05-22T06:08:12.715Z,20.27
2019-05-22T06:13:15.106Z,21.73
2019-05-22T06:18:42.888Z,19.30
2019-05-22T06:23:54.032Z,20.70
2019-05-22T06:28:57.586Z,17.17
2019-05-22T06:33:59.578Z,18.02
2019-05-22T06:39:13.311Z,13.30
2019-05-22T06:44:34.583Z,12.28
2019-05-22T06:49:46.303Z,7.28
2019-05-22T06:54:47.999Z,8.55
2019-05-22T07:00:10.826Z,6.95
2019-05-22T07:04:54.419Z,6.47
2019-05-22T07:09:57.281Z,8.00
2019-05-22T07:15:20.159Z,7.30
2019-05-22T07:20:23.540Z,8.50
2019-05-22T07:25:27.507Z,11.28
2019-05-22T07:30:29.868Z,14.55
2019-05-22T07:35:49.764Z,12.33
2019-05-22T07:40:36.118Z,12.68
2019-05-22T07:45:38.641Z,11.85
2019-05-22T07:50:47.975Z,9.85
2019-05-22T07:55:48.115Z,9.33
2019-05-22T08:00:58.665Z,8.75
2019-05-22T08:06:00.880Z,7.65
2019-05-22T08:11:04.146Z,7.95
2019-05-22T08:16:06.297Z,10.30
2019-05-22T08:21:08.208Z,7.62
2019-05-22T08:26:13.360Z,9.20
2019-05-22T08:31:16.767Z,11.25
2019-05-22T08:36:18.420Z,10.70
2019-05-22T08:41:23.713Z,9.05
2019-05-22T08:46:25.412Z,8.78
2019-05-22T08:51:27.150Z,7.28
2019-05-22T08:56:31.522Z,7.70
2019-05-22T09:01:33.300Z,7.72
2019-05-22T09:06:35.102Z,7.35
2019-05-22T09:11:39.217Z,8.13
2019-05-22T09:16:42.153Z,8.20
2019-05-22T09:21:44.049Z,7.92
2019-05-22T09:26:45.843Z,6.85
2019-05-22T09:31:47.595Z,7.03
2019-05-22T09:36:49.716Z,9.50
2019-05-22T09:41:51.507Z,9.15
2019-05-22T09:46:53.821Z,9.28
2019-05-22T09:51:56.239Z,14.98
2019-05-22T09:56:58.013Z,14.25
2019-05-22T10:02:00.172Z,14.83
2019-05-22T10:07:02.056Z,17.05
2019-05-22T10:12:05.248Z,18.87
2019-05-22T10:17:08.313Z,15.45
2019-05-22T10:22:11.377Z,19.52
2019-05-22T10:27:13.807Z,17.48
2019-05-22T10:32:16.305Z,18.27
2019-05-22T10:37:19.195Z,16.42
2019-05-22T10:42:23.644Z,12.65
2019-05-22T10:47:25.587Z,11.85
2019-05-22T10:52:27.460Z,17.73
2019-05-22T10:57:29.323Z,16.90
2019-05-22T11:02:31.218Z,20.30
2019-05-22T11:07:34.193Z,19.67
2019-05-22T11:12:36.063Z,22.65
2019-05-22T11:17:38.472Z,26.60
2019-05-22T11:22:40.500Z,23.70
2019-05-22T11:27:42.607Z,26.10
2019-05-22T11:32:44.934Z,22.90
2019-05-22T11:37:47.159Z,22.80
2019-05-22T11:42:50.176Z,21.65
2019-05-22T11:47:54.732Z,16.70
2019-05-22T11:52:56.505Z,18.32
2019-05-22T11:57:58.336Z,19.87
2019-05-22T12:03:00.636Z,19.70
2019-05-22T12:08:03.412Z,21.10
2019-05-22T12:13:05.456Z,22.85
2019-05-22T12:18:07.688Z,20.77
2019-05-22T12:23:09.863Z,17.23
2019-05-22T12:28:12.650Z,16.75
2019-05-22T12:33:14.950Z,18.75
2019-05-22T12:38:16.641Z,14.13
2019-05-22T12:43:19.159Z,18.40
2019-05-22T12:48:21.185Z,19.48
2019-05-22T12:53:23.392Z,16.85
2019-05-22T12:58:27.312Z,18.70
2019-05-22T13:03:29.833Z,16.02
2019-05-22T13:08:31.949Z,19.15
2019-05-22T13:13:33.603Z,19.95
2019-05-22T13:18:35.527Z,21.15
2019-05-22T13:23:38.782Z,19.85
2019-05-22T13:28:46.213Z,17.80
2019-05-22T13:33:49.673Z,20.95
2019-05-22T13:38:51.900Z,19.05
2019-05-22T13:43:53.898Z,18.25
2019-05-22T13:48:55.931Z,19.40
2019-05-22T13:53:58.167Z,16.95
2019-05-22T13:59:01.183Z,23.47
2019-05-22T14:04:03.049Z,19.20
2019-05-22T14:09:07.563Z,16.55
2019-05-22T14:14:09.621Z,16.55
2019-05-22T14:19:11.423Z,18.30
2019-05-22T14:24:17.584Z,15.75
2019-05-22T14:29:19.312Z,20.90
2019-05-22T14:34:21.345Z,18.92
2019-05-22T14:39:24.751Z,21.60
2019-05-22T14:44:26.520Z,18.12
2019-05-22T14:49:28.157Z,18.07
2019-05-22T14:54:30.448Z,16.77
2019-05-22T14:59:33.362Z,18.42
2019-05-22T15:04:35.594Z,17.65
2019-05-22T15:09:37.425Z,16.67
2019-05-22T15:14:39.536Z,13.43
2019-05-22T15:19:41.297Z,14.40
2019-05-22T15:24:43.045Z,14.03
2019-05-22T15:29:45.794Z,14.43
2019-05-22T15:34:47.649Z,12.53
2019-05-22T15:39:49.602Z,11.12
2019-05-22T15:44:52.113Z,12.40
2019-05-22T15:49:55.068Z,13.15
2019-05-22T15:54:57.268Z,13.25
2019-05-22T15:59:59.961Z,16.42
2019-05-22T16:05:01.635Z,12.50
2019-05-22T16:10:05.323Z,13.20
2019-05-22T16:15:09.472Z,11.15
2019-05-22T16:20:11.777Z,16.07
2019-05-22T16:25:14.657Z,13.83
2019-05-22T16:30:17.507Z,11.85
2019-05-22T16:35:19.178Z,13.50
2019-05-22T16:40:21.679Z,12.40
2019-05-22T16:45:24.086Z,11.50
2019-05-22T16:50:27.494Z,12.45
2019-05-22T16:55:31.544Z,14.00
2019-05-22T17:00:34.693Z,10.95
2019-05-22T17:05:37.546Z,12.23
2019-05-22T17:10:39.464Z,15.20
2019-05-22T17:15:41.841Z,14.98
2019-05-22T17:20:44.334Z,12.25
2019-05-22T17:25:46.419Z,13.15
2019-05-22T17:30:48.468Z,11.88
2019-05-22T17:35:50.656Z,10.90
2019-05-22T17:40:52.839Z,11.68
2019-05-22T17:45:54.619Z,10.58
2019-05-22T17:50:57.277Z,10.98
2019-05-22T17:56:00.817Z,11.00
2019-05-22T18:01:03.940Z,12.68
2019-05-22T18:06:05.645Z,18.20
2019-05-22T18:11:08.356Z,15.23
2019-05-22T18:16:10.667Z,14.68
2019-05-22T18:21:12.712Z,11.90
2019-05-22T18:26:14.663Z,11.88
2019-05-22T18:31:16.407Z,11.22
2019-05-22T18:36:18.068Z,11.78
2019-05-22T18:41:20.192Z,13.53
2019-05-22T18:46:22.507Z,12.30
2019-05-22T18:51:24.217Z,12.70
2019-05-22T18:56:36.685Z,13.15
2019-05-22T19:01:38.336Z,10.13
2019-05-22T19:06:40.416Z,10.45
2019-05-22T19:11:42.350Z,13.32
2019-05-22T19:16:44.482Z,11.97
2019-05-22T19:21:46.220Z,13.85
2019-05-22T19:26:48.021Z,12.85
2019-05-22T19:31:49.755Z,14.75
2019-05-22T19:36:52.888Z,12.98
2019-05-22T19:42:02.724Z,16.97
2019-05-22T19:46:58.600Z,14.70
2019-05-22T19:52:00.535Z,17.52
2019-05-22T19:57:02.197Z,15.40
2019-05-22T20:02:05.054Z,13.15
2019-05-22T20:07:07.714Z,15.48
2019-05-22T20:12:09.483Z,16.02
2019-05-22T20:17:11.961Z,17.32
2019-05-22T20:22:15.229Z,13.98
2019-05-22T20:27:17.543Z,12.53
2019-05-22T20:32:20.063Z,15.32
2019-05-22T20:37:22.704Z,15.78
2019-05-22T20:42:24.930Z,17.85
2019-05-22T20:47:27.738Z,14.03
2019-05-22T20:52:30.202Z,16.10
2019-05-22T20:57:33.345Z,15.00
2019-05-22T21:02:38.141Z,15.63
2019-05-22T21:07:42.495Z,14.50
2019-05-22T21:12:45.850Z,19.52
2019-05-22T21:17:48.676Z,14.98
2019-05-22T21:22:51.441Z,16.48
2019-05-22T21:27:53.368Z,18.92
2019-05-22T21:33:26.438Z,16.27
2019-05-22T21:38:42.059Z,17.98
2019-05-22T21:43:44.704Z,15.50
2019-05-22T21:49:04.888Z,18.30
2019-05-22T21:54:13.719Z,19.75
2019-05-22T21:59:17.398Z,17.85
2019-05-22T22:04:20.405Z,17.95
2019-05-22T22:09:23.178Z,17.27
2019-05-22T22:14:25.257Z,16.37
2019-05-22T22:19:29.343Z,17.10
2019-05-22T22:24:31.447Z,19.82
2019-05-22T22:29:33.312Z,16.50
2019-05-22T22:40:38.356Z,18.42
2019-05-22T22:45:43.653Z,17.35
2019-05-22T22:50:47.640Z,18.73
2019-05-22T23:02:20.758Z,21.75
2019-05-22T23:07:24.708Z,18.57
2019-05-22T23:12:27.535Z,22.02
2019-05-22T23:17:36.626Z,19.30
2019-05-22T23:22:41.170Z,16.30
2019-05-22T23:27:42.851Z,22.40
2019-05-22T23:32:45.301Z,18.50
2019-05-22T23:37:47.874Z,20.88
2019-05-22T23:42:49.707Z,21.60
2019-05-22T23:47:58.299Z,21.75
2019-05-22T23:53:00.735Z,20.37
2019-05-22T23:58:03.777Z,20.95
